createdAt,value
2022-11-13T00:00:35.211Z,19.38
2022-11-13T00:06:03.611Z,20.92
2022-11-13T00:11:24.607Z,21.85
2022-11-13T00:16:44.926Z,27.15
2022-11-13T00:22:05.258Z,23.05
2022-11-13T00:27:25.907Z,21.00
2022-11-13T00:32:46.247Z,25.25
2022-11-13T00:38:06.536Z,21.50
2022-11-13T00:43:27.475Z,20.90
2022-11-13T00:48:48.594Z,351.88
2022-11-13T00:54:09.178Z,560.85
2022-11-13T00:59:29.436Z,460.02
2022-11-13T01:04:49.794Z,511.08
2022-11-13T01:10:10.206Z,635.35
2022-11-13T01:15:31.492Z,380.63
2022-11-13T01:20:51.695Z,304.23
2022-11-13T01:26:21.615Z,492.08
2022-11-13T01:31:42.205Z,659.40
2022-11-13T01:37:02.596Z,612.72
2022-11-13T01:42:23.181Z,417.75
2022-11-13T01:47:43.984Z,20.63
2022-11-13T01:53:05.179Z,25.63
2022-11-13T01:58:26.309Z,602.40
2022-11-13T02:03:46.663Z,25.90
2022-11-13T02:09:08.179Z,20.27
2022-11-13T02:14:29.698Z,23.05
2022-11-13T02:19:54.276Z,25.58
2022-11-13T02:25:15.648Z,26.67
2022-11-13T02:30:37.316Z,26.40
2022-11-13T02:35:58.048Z,25.63
2022-11-13T02:41:18.509Z,21.77
2022-11-13T02:46:39.221Z,22.33
2022-11-13T02:51:59.788Z,23.52
2022-11-13T02:57:20.272Z,23.45
2022-11-13T03:02:40.692Z,23.90
2022-11-13T03:08:01.033Z,21.67
2022-11-13T03:13:21.353Z,27.10
2022-11-13T03:18:42.338Z,21.08
2022-11-13T03:24:03.172Z,642.88
2022-11-13T03:29:23.384Z,698.85
2022-11-13T03:34:43.671Z,321.10
2022-11-13T03:40:04.345Z,649.70
2022-11-13T03:45:24.986Z,25.88
2022-11-13T03:50:47.755Z,23.75
2022-11-13T03:56:08.351Z,20.83
2022-11-13T04:01:28.669Z,21.15
2022-11-13T04:06:49.495Z,25.05
2022-11-13T04:12:10.102Z,22.98
2022-11-13T04:17:30.412Z,29.30
2022-11-13T04:22:51.190Z,20.20
2022-11-13T04:28:11.902Z,22.48
2022-11-13T04:33:32.339Z,17.55
2022-11-13T04:38:52.644Z,23.38
2022-11-13T04:44:12.996Z,22.73
2022-11-13T04:49:33.557Z,70.68
2022-11-13T04:54:53.761Z,23.58
2022-11-13T05:00:14.525Z,23.70
2022-11-13T05:05:34.798Z,21.30
2022-11-13T05:10:55.291Z,21.05
2022-11-13T05:16:15.864Z,19.00
2022-11-13T05:21:38.260Z,23.73
2022-11-13T05:26:59.066Z,22.13
2022-11-13T05:32:19.411Z,23.10
2022-11-13T05:37:39.695Z,33.40
2022-11-13T05:42:59.916Z,22.67
2022-11-13T05:48:20.180Z,22.90
2022-11-13T05:53:41.011Z,25.02
2022-11-13T05:59:02.173Z,24.48
2022-11-13T06:04:22.472Z,23.65
2022-11-13T06:09:42.922Z,21.55
2022-11-13T06:15:03.246Z,24.13
2022-11-13T06:20:23.947Z,25.52
2022-11-13T06:25:44.585Z,24.00
2022-11-13T06:31:08.919Z,24.05
2022-11-13T06:36:33.811Z,21.35
2022-11-13T06:41:54.070Z,23.33
2022-11-13T06:47:14.532Z,22.58
2022-11-13T06:52:35.145Z,23.27
2022-11-13T06:57:55.630Z,22.92
2022-11-13T07:03:22.563Z,20.42
2022-11-13T07:08:43.764Z,22.13
2022-11-13T07:14:04.357Z,83.82
2022-11-13T07:19:24.540Z,670.35
2022-11-13T07:24:44.762Z,161.27
2022-11-13T07:30:05.705Z,18.67
2022-11-13T07:35:25.980Z,659.42
2022-11-13T07:40:46.254Z,23.50
2022-11-13T07:46:06.548Z,18.30
2022-11-13T07:51:26.948Z,22.08
2022-11-13T07:56:47.416Z,21.38
2022-11-13T08:02:14.030Z,20.67
2022-11-13T08:07:34.625Z,21.05
2022-11-13T08:13:05.473Z,20.27
2022-11-13T08:18:27.907Z,18.67
2022-11-13T08:23:50.346Z,19.05
2022-11-13T08:29:10.525Z,24.08
2022-11-13T08:34:31.056Z,17.13
2022-11-13T08:39:51.658Z,17.23
2022-11-13T08:45:12.561Z,19.58
2022-11-13T08:50:34.315Z,17.52
2022-11-13T08:55:54.833Z,15.13
2022-11-13T09:01:16.909Z,15.65
2022-11-13T09:06:37.947Z,18.88
2022-11-13T09:11:58.511Z,14.68
2022-11-13T09:17:20.222Z,21.80
2022-11-13T09:22:41.010Z,19.48
2022-11-13T09:28:02.075Z,17.25
2022-11-13T09:33:22.750Z,19.80
2022-11-13T09:38:43.331Z,17.42
2022-11-13T09:44:13.465Z,16.50
2022-11-13T09:49:38.413Z,20.40
2022-11-13T09:54:59.745Z,25.38
2022-11-13T10:00:22.397Z,182.05
2022-11-13T10:05:54.824Z,18.98
2022-11-13T10:11:41.172Z,16.10
2022-11-13T10:17:08.724Z,21.98
2022-11-13T10:22:37.477Z,49.27
2022-11-13T10:28:16.110Z,14.60
2022-11-13T10:33:42.187Z,16.65
2022-11-13T10:39:07.544Z,442.02
2022-11-13T10:44:35.495Z,687.50
2022-11-13T10:49:56.267Z,741.75
2022-11-13T10:55:42.670Z,791.88
2022-11-13T11:01:23.174Z,775.70
2022-11-13T11:12:30.742Z,795.13
2022-11-13T11:17:54.354Z,770.78
2022-11-13T11:23:29.855Z,795.95
2022-11-13T11:29:06.742Z,798.00
2022-11-13T11:34:27.012Z,803.35
2022-11-13T11:39:50.709Z,798.05
2022-11-13T11:45:44.605Z,800.97
2022-11-13T11:51:25.124Z,801.65
2022-11-13T11:56:55.765Z,818.88
2022-11-13T12:02:39.633Z,781.47
2022-11-13T12:08:28.591Z,805.55
2022-11-13T12:14:07.723Z,578.47
2022-11-13T12:19:59.139Z,781.42
2022-11-13T12:25:34.499Z,778.33
2022-11-13T12:31:09.393Z,817.38
2022-11-13T12:36:30.871Z,826.70
2022-11-13T12:41:57.007Z,482.98
2022-11-13T12:47:17.774Z,822.30
2022-11-13T12:52:38.115Z,814.15
2022-11-13T12:58:31.951Z,812.40
2022-11-13T13:03:55.288Z,818.75
2022-11-13T13:09:34.714Z,802.67
2022-11-13T13:15:06.419Z,807.17
2022-11-13T13:20:58.775Z,805.17
2022-11-13T13:26:25.755Z,822.22
2022-11-13T13:32:14.544Z,800.40
2022-11-13T13:37:56.824Z,781.30
2022-11-13T13:43:35.962Z,664.58
2022-11-13T13:49:02.241Z,792.67
2022-11-13T13:54:27.200Z,764.88
2022-11-13T13:59:47.899Z,767.90
2022-11-13T14:05:38.018Z,779.58
2022-11-13T14:10:58.303Z,776.38
2022-11-13T14:16:19.021Z,773.35
2022-11-13T14:21:39.640Z,777.25
2022-11-13T14:27:05.266Z,742.72
2022-11-13T14:32:29.097Z,719.97
2022-11-13T14:37:51.347Z,768.58
2022-11-13T14:43:20.143Z,695.25
2022-11-13T14:48:53.159Z,758.53
2022-11-13T14:54:46.902Z,748.58
2022-11-13T15:00:26.243Z,710.70
2022-11-13T15:05:46.615Z,658.55
2022-11-13T15:11:12.877Z,742.25
2022-11-13T15:16:33.608Z,738.67
2022-11-13T15:22:25.293Z,727.22
2022-11-13T15:27:42.742Z,714.90
2022-11-13T15:33:12.335Z,688.30
2022-11-13T15:38:33.134Z,703.60
2022-11-13T15:43:55.501Z,700.05
2022-11-13T15:49:15.648Z,717.15
2022-11-13T15:54:38.802Z,641.00
2022-11-13T15:59:59.373Z,654.95
2022-11-13T16:05:19.928Z,668.53
2022-11-13T16:10:40.149Z,681.22
2022-11-13T16:16:00.913Z,620.25
2022-11-13T16:21:22.413Z,639.17
2022-11-13T16:26:51.689Z,676.28
2022-11-13T16:32:18.897Z,579.05
2022-11-13T16:37:39.979Z,634.38
2022-11-13T16:43:00.657Z,734.45
2022-11-13T16:48:20.826Z,768.75
2022-11-13T16:53:41.643Z,769.40
2022-11-13T16:59:01.979Z,684.05
2022-11-13T17:04:22.767Z,630.65
2022-11-13T17:09:44.654Z,594.42
2022-11-13T17:15:05.629Z,573.40
2022-11-13T17:20:26.452Z,17.70
2022-11-13T17:25:47.855Z,10.60
2022-11-13T17:31:12.591Z,12.38
2022-11-13T17:36:33.235Z,13.85
2022-11-13T17:41:54.591Z,535.40
2022-11-13T17:47:15.418Z,541.78
2022-11-13T17:52:35.909Z,598.38
2022-11-13T17:57:59.943Z,15.40
2022-11-13T18:03:20.949Z,15.15
2022-11-13T18:08:43.032Z,15.93
2022-11-13T18:14:03.308Z,18.45
2022-11-13T18:19:23.995Z,15.60
2022-11-13T18:24:44.560Z,15.55
2022-11-13T18:30:05.830Z,14.95
2022-11-13T18:35:26.440Z,15.68
2022-11-13T18:40:46.638Z,12.10
2022-11-13T18:46:08.093Z,13.07
2022-11-13T18:51:29.631Z,13.85
2022-11-13T18:56:50.897Z,12.82
2022-11-13T19:02:12.937Z,15.02
2022-11-13T19:07:33.629Z,13.88
2022-11-13T19:12:53.836Z,17.42
2022-11-13T19:18:14.267Z,17.92
2022-11-13T19:23:35.112Z,12.73
2022-11-13T19:28:56.073Z,13.70
2022-11-13T19:34:16.522Z,21.65
2022-11-13T19:39:36.949Z,14.13
2022-11-13T19:44:57.180Z,16.67
2022-11-13T19:50:17.561Z,12.52
2022-11-13T19:55:37.869Z,13.52
2022-11-13T20:00:58.846Z,12.73
2022-11-13T20:06:22.805Z,14.68
2022-11-13T20:11:45.254Z,15.60
2022-11-13T20:17:06.053Z,17.67
2022-11-13T20:22:26.747Z,16.05
2022-11-13T20:27:47.826Z,17.67
2022-11-13T20:33:09.033Z,15.73
2022-11-13T20:38:30.517Z,16.08
2022-11-13T20:43:52.438Z,15.93
2022-11-13T20:49:12.648Z,20.45
2022-11-13T20:54:33.477Z,14.70
2022-11-13T20:59:54.118Z,15.15
2022-11-13T21:05:15.501Z,13.73
2022-11-13T21:10:36.213Z,14.30
2022-11-13T21:15:56.610Z,13.18
2022-11-13T21:21:19.639Z,13.90
2022-11-13T21:26:40.097Z,17.25
2022-11-13T21:32:00.540Z,16.45
2022-11-13T21:37:20.697Z,14.25
2022-11-13T21:42:41.201Z,15.00
2022-11-13T21:48:01.637Z,16.42
2022-11-13T21:53:22.147Z,15.57
2022-11-13T21:58:42.910Z,25.95
2022-11-13T22:04:03.288Z,16.13
2022-11-13T22:09:25.521Z,14.57
2022-11-13T22:14:45.721Z,14.38
2022-11-13T22:20:06.588Z,16.77
2022-11-13T22:25:27.330Z,17.17
2022-11-13T22:30:47.729Z,15.75
2022-11-13T22:36:17.018Z,18.58
2022-11-13T22:41:37.502Z,17.90
2022-11-13T22:46:58.266Z,20.25
2022-11-13T22:52:18.569Z,18.08
2022-11-13T22:57:39.406Z,17.13
2022-11-13T23:03:00.760Z,15.88
2022-11-13T23:08:21.294Z,17.42
2022-11-13T23:13:53.278Z,20.90
2022-11-13T23:19:13.900Z,17.60
2022-11-13T23:24:34.211Z,20.10
2022-11-13T23:29:54.405Z,18.30
2022-11-13T23:35:15.148Z,20.80
2022-11-13T23:40:35.687Z,21.95
2022-11-13T23:45:56.172Z,20.80
2022-11-13T23:51:16.370Z,27.30
2022-11-13T23:56:36.980Z,24.35
